Atlanta, Georgia
Traffic Map
Current Weather Conditions
Atlanta, Georgia
Broken Clouds
Broken Clouds
23°
Feels Like: 23°
Wind Chill: 23° Ceiling: 25000
Heat Index: 23° Visibility: 10mi
Dew Point: 20° Wind: 6mph
Humidity: 82% Direction: 270° (W)
Pressure: 30.11in Gusts: 0mph
Raw Report DataKATL 041652Z 27005KT 10SM FEW012 SCT150 BKN250 23/20 A3011 RMK AO2 RAE30 SLP186 P0008 T02330200 $
Traffic Incident Summary
Active as of:
Severity:
Category:
InformationThere was an issue retrieving the traffic information for this location. Please try a different location or try again shortly.
Advertisements
Track Severe Weather on mobile